Time;durP1;ratioP1;P1;durP2;ratioP2;P2;SDS_P1;SDS_P2;PMS_P1;PMS_P2;Temp;Humidity;BMP_temperature;BMP_pressure;BME280_temperature;BME280_humidity;BME280_pressure;Samples;Min_cycle;Max_cycle;Signal;HPM_P1;HPM_P2
2021/03/23 00:02:13;;;;;;;4.10;1.00;;;11.00;99.90;;;;;;4906468;29;20277;-91
2021/03/23 00:04:45;;;;;;;2.03;1.10;;;11.30;99.90;;;;;;4919621;29;20202;-90
2021/03/23 00:07:16;;;;;;;2.50;1.20;;;11.40;99.90;;;;;;4921401;29;20238;-92
2021/03/23 00:09:47;;;;;;;1.77;0.80;;;11.40;99.90;;;;;;4920428;29;20198;-91
2021/03/23 00:12:17;;;;;;;1.47;0.70;;;11.10;99.90;;;;;;4912340;29;20194;-91
2021/03/23 00:14:49;;;;;;;2.07;1.00;;;11.10;99.90;;;;;;4917258;29;20237;-92
2021/03/23 00:17:20;;;;;;;1.47;0.90;;;11.00;99.90;;;;;;4922427;29;20209;-91
2021/03/23 00:19:51;;;;;;;3.70;1.23;;;10.70;99.90;;;;;;4920986;29;20206;-92
2021/03/23 00:22:21;;;;;;;5.00;1.13;;;10.50;99.90;;;;;;4918617;29;20218;-92
2021/03/23 00:24:52;;;;;;;5.47;1.23;;;10.40;99.90;;;;;;4916650;29;20221;-93
2021/03/23 00:27:24;;;;;;;4.07;1.10;;;10.20;99.90;;;;;;4920036;29;20383;-93
2021/03/23 00:29:56;;;;;;;2.17;1.00;;;9.90;99.90;;;;;;4910708;29;20274;-93
2021/03/23 00:32:27;;;;;;;3.23;1.60;;;9.80;99.90;;;;;;4908498;29;20201;-92
2021/03/23 00:34:58;;;;;;;3.97;0.97;;;9.70;99.90;;;;;;4903604;29;20353;-92
2021/03/23 00:37:30;;;;;;;5.63;1.30;;;9.80;99.90;;;;;;4903005;29;20655;-93
2021/03/23 00:40:07;;;;;;;3.93;1.50;;;9.80;99.90;;;;;;4901361;29;20213;-93
2021/03/23 00:42:38;;;;;;;4.47;1.90;;;9.90;99.90;;;;;;4905481;29;20214;-92
2021/03/23 00:45:12;;;;;;;3.80;1.80;;;9.90;99.90;;;;;;4907299;29;20209;-93
2021/03/23 00:47:43;;;;;;;4.80;1.97;;;9.90;99.90;;;;;;4908221;29;20216;-91
2021/03/23 00:50:15;;;;;;;4.67;1.90;;;9.90;99.90;;;;;;4904494;29;20209;-92
2021/03/23 00:52:47;;;;;;;5.97;1.73;;;9.70;99.90;;;;;;4904358;29;20620;-92
2021/03/23 00:55:18;;;;;;;5.57;1.67;;;9.70;99.90;;;;;;4908945;29;20293;-93
2021/03/23 00:57:51;;;;;;;3.93;1.50;;;9.70;99.90;;;;;;4912622;29;20214;-92
2021/03/23 01:00:26;;;;;;;5.13;1.80;;;9.60;99.90;;;;;;4907899;29;20216;-92
2021/03/23 01:02:58;;;;;;;5.43;1.93;;;9.50;99.90;;;;;;4909777;29;20209;-92
2021/03/23 01:05:31;;;;;;;6.83;1.87;;;9.40;99.90;;;;;;4912531;29;20221;-93
2021/03/23 01:08:02;;;;;;;5.40;1.93;;;9.40;99.90;;;;;;4911718;29;20213;-94
2021/03/23 01:10:34;;;;;;;2.40;1.67;;;9.30;99.90;;;;;;4911884;29;20209;-92
2021/03/23 01:13:05;;;;;;;6.77;1.60;;;9.20;99.90;;;;;;4910477;29;20277;-93
2021/03/23 01:15:37;;;;;;;4.63;1.67;;;9.30;99.90;;;;;;4904800;29;20698;-93
2021/03/23 01:18:08;;;;;;;6.63;1.93;;;9.20;99.90;;;;;;4906399;29;20209;-93
2021/03/23 01:20:39;;;;;;;2.77;1.67;;;9.20;99.90;;;;;;4910709;29;20265;-93
2021/03/23 01:23:09;;;;;;;3.67;1.33;;;9.20;99.90;;;;;;4909452;29;20669;-92
2021/03/23 01:25:40;;;;;;;2.57;1.30;;;9.20;99.90;;;;;;4907640;29;20214;-94
2021/03/23 01:28:11;;;;;;;2.80;1.30;;;9.20;99.90;;;;;;4902599;29;20218;-93
2021/03/23 01:30:43;;;;;;;3.43;1.60;;;9.20;99.90;;;;;;4902069;29;20711;-93
2021/03/23 01:33:17;;;;;;;3.83;1.70;;;9.20;99.90;;;;;;4907421;29;20220;-93
2021/03/23 01:35:49;;;;;;;3.33;1.70;;;9.10;99.90;;;;;;4902194;29;20716;-93
2021/03/23 01:38:20;;;;;;;2.97;1.60;;;9.10;99.90;;;;;;4901979;29;20618;-93
2021/03/23 01:40:52;;;;;;;6.03;1.27;;;9.00;99.90;;;;;;4901828;29;20233;-94
2021/03/23 01:43:25;;;;;;;5.23;1.43;;;8.90;99.90;;;;;;4903744;29;20285;-92
2021/03/23 01:46:01;;;;;;;2.70;1.37;;;8.90;99.90;;;;;;4903715;29;20292;-93
2021/03/23 01:48:36;;;;;;;4.00;1.47;;;8.70;99.90;;;;;;4901573;29;20216;-92
2021/03/23 01:51:09;;;;;;;3.07;1.80;;;8.70;99.90;;;;;;4906281;29;20292;-92
2021/03/23 01:53:44;;;;;;;5.03;1.87;;;8.60;99.90;;;;;;4901007;29;20246;-93
2021/03/23 01:56:18;;;;;;;3.43;1.67;;;8.50;99.90;;;;;;4901350;29;20256;-92
2021/03/23 01:58:51;;;;;;;6.27;1.70;;;8.40;99.90;;;;;;4905714;29;20194;-92
2021/03/23 02:01:23;;;;;;;3.77;1.50;;;8.30;99.90;;;;;;4900450;29;20225;-92
2021/03/23 02:03:57;;;;;;;4.83;1.60;;;8.20;99.90;;;;;;4905427;29;20208;-91
2021/03/23 02:06:41;;;;;;;5.33;1.70;;;8.00;99.90;;;;;;4904882;29;20677;-93
2021/03/23 02:09:16;;;;;;;5.40;1.80;;;7.90;99.90;;;;;;4902590;29;20209;-92
2021/03/23 02:11:50;;;;;;;6.30;2.20;;;7.80;99.90;;;;;;4901734;29;20304;-91
2021/03/23 02:14:25;;;;;;;7.73;2.10;;;7.70;99.90;;;;;;4902576;29;20220;-93
2021/03/23 02:17:16;;;;;;;6.87;2.20;;;7.60;99.90;;;;;;4901869;29;20263;-94
2021/03/23 02:19:49;;;;;;;8.10;2.23;;;7.50;99.90;;;;;;4902684;29;20210;-94
2021/03/23 02:22:27;;;;;;;8.63;1.80;;;7.40;99.90;;;;;;4900422;29;20246;-93
2021/03/23 02:25:02;;;;;;;6.07;2.37;;;7.40;99.90;;;;;;4909780;29;20201;-92
2021/03/23 02:27:34;;;;;;;8.90;2.27;;;7.30;99.90;;;;;;4920459;29;20181;-93
2021/03/23 02:30:09;;;;;;;5.70;2.20;;;7.30;99.90;;;;;;4904651;29;20198;-91
2021/03/23 02:32:39;;;;;;;5.50;2.20;;;7.20;99.90;;;;;;4918843;29;20211;-89
2021/03/23 02:35:29;;;;;;;8.00;2.30;;;7.10;99.90;;;;;;4921741;29;20229;-93
2021/03/23 02:38:02;;;;;;;5.10;2.10;;;7.00;99.90;;;;;;4917031;29;20225;-95
2021/03/23 02:40:37;;;;;;;3.70;1.90;;;7.00;99.90;;;;;;4919579;29;20198;-89
2021/03/23 02:43:08;;;;;;;4.93;1.50;;;7.00;99.90;;;;;;4915386;29;20264;-90
2021/03/23 02:45:40;;;;;;;5.33;1.63;;;7.00;99.90;;;;;;4912467;29;20232;-91
2021/03/23 02:48:13;;;;;;;4.83;2.10;;;6.90;99.90;;;;;;4912687;29;20205;-91
2021/03/23 02:50:44;;;;;;;5.43;2.20;;;6.90;99.90;;;;;;4911806;29;20281;-91
2021/03/23 02:53:16;;;;;;;5.47;2.00;;;6.90;99.90;;;;;;4921954;23;20280;-92
2021/03/23 02:55:47;;;;;;;4.40;1.70;;;6.70;99.90;;;;;;5103363;23;20236;-91
2021/03/23 02:58:19;;;;;;;7.07;2.00;;;6.70;99.90;;;;;;4924070;29;20311;-90
2021/03/23 03:00:51;;;;;;;7.73;2.23;;;6.60;99.90;;;;;;4926239;29;20211;-92
2021/03/23 03:03:27;;;;;;;9.27;2.13;;;6.50;99.90;;;;;;4927768;29;20226;-91
2021/03/23 03:05:58;;;;;;;6.90;2.30;;;6.50;99.90;;;;;;4927624;29;20302;-91
2021/03/23 03:08:33;;;;;;;6.10;1.83;;;6.40;99.90;;;;;;4927160;29;20212;-93
2021/03/23 03:11:07;;;;;;;4.87;2.10;;;6.20;99.90;;;;;;4928127;29;20212;-92
2021/03/23 03:13:38;;;;;;;5.63;2.10;;;6.10;99.90;;;;;;4931938;29;20789;-94
2021/03/23 03:16:09;;;;;;;3.67;1.63;;;6.00;99.90;;;;;;4932319;29;20249;-93
2021/03/23 03:18:40;;;;;;;4.90;2.10;;;5.90;99.90;;;;;;4931992;29;20584;-93
2021/03/23 03:21:12;;;;;;;6.13;2.20;;;5.90;99.90;;;;;;4934553;29;20239;-94
2021/03/23 03:23:44;;;;;;;7.93;2.13;;;5.80;99.90;;;;;;4927230;29;20225;-93
2021/03/23 03:26:15;;;;;;;7.03;1.90;;;5.70;99.90;;;;;;4924965;29;20228;-93
2021/03/23 03:28:52;;;;;;;5.43;1.80;;;5.70;99.90;;;;;;4925040;29;20284;-92
2021/03/23 03:31:29;;;;;;;5.00;1.90;;;5.60;99.90;;;;;;4909140;29;20217;-93
2021/03/23 03:34:03;;;;;;;5.27;2.03;;;5.50;99.90;;;;;;4905184;29;20249;-92
2021/03/23 03:36:36;;;;;;;7.97;1.87;;;5.50;99.90;;;;;;4903666;29;20240;-92
2021/03/23 03:39:11;;;;;;;5.17;2.00;;;5.50;99.90;;;;;;4905182;29;20210;-92
2021/03/23 03:41:43;;;;;;;4.10;1.80;;;5.40;99.90;;;;;;4903668;29;20269;-92
2021/03/23 03:44:14;;;;;;;8.27;2.40;;;5.40;99.90;;;;;;4903100;29;20420;-92
2021/03/23 03:46:44;;;;;;;5.77;1.70;;;5.30;99.90;;;;;;4903668;29;20262;-93
2021/03/23 03:49:17;;;;;;;5.40;2.40;;;5.30;99.90;;;;;;4903621;29;20559;-91
2021/03/23 03:51:48;;;;;;;4.53;2.10;;;5.20;99.90;;;;;;4904556;29;20210;-92
2021/03/23 03:54:19;;;;;;;4.90;2.07;;;5.20;99.90;;;;;;4902920;29;20233;-91
2021/03/23 03:56:49;;;;;;;4.70;2.00;;;5.10;99.90;;;;;;4903048;29;20241;-92
2021/03/23 03:59:20;;;;;;;3.47;1.90;;;5.10;99.90;;;;;;4903863;29;20210;-92
2021/03/23 04:01:50;;;;;;;6.63;2.23;;;5.00;99.90;;;;;;4902329;29;20260;-92
2021/03/23 04:04:21;;;;;;;5.47;2.20;;;5.00;99.90;;;;;;4903639;29;20300;-90
2021/03/23 04:06:52;;;;;;;6.47;2.27;;;5.00;99.90;;;;;;4904233;29;20233;-93
2021/03/23 04:09:22;;;;;;;7.03;2.10;;;5.00;99.90;;;;;;4909145;29;20678;-90
2021/03/23 04:11:55;;;;;;;5.00;2.10;;;4.90;99.90;;;;;;4907333;29;20205;-93
2021/03/23 04:14:25;;;;;;;5.37;2.10;;;4.90;99.90;;;;;;4906700;29;20221;-92
2021/03/23 04:16:56;;;;;;;6.13;2.00;;;4.80;99.90;;;;;;4906447;29;20244;-92
2021/03/23 04:19:27;;;;;;;3.83;1.80;;;4.80;99.90;;;;;;4914964;29;20206;-90
2021/03/23 04:22:01;;;;;;;5.00;2.20;;;4.80;99.90;;;;;;4912765;29;20265;-93
2021/03/23 04:24:37;;;;;;;7.13;2.37;;;4.80;99.90;;;;;;4911990;29;20214;-91
2021/03/23 04:27:13;;;;;;;6.13;1.90;;;4.80;99.90;;;;;;4911427;29;20234;-92
2021/03/23 04:29:45;;;;;;;6.20;2.30;;;4.80;99.90;;;;;;4908233;29;20229;-92
2021/03/23 04:32:16;;;;;;;5.37;2.30;;;4.90;99.90;;;;;;4904941;29;20214;-92
2021/03/23 04:34:48;;;;;;;4.80;2.00;;;4.90;99.90;;;;;;4905608;29;20240;-92
2021/03/23 04:37:21;;;;;;;9.50;2.80;;;5.00;99.90;;;;;;4909465;29;20221;-93
2021/03/23 04:39:55;;;;;;;4.53;2.40;;;5.10;99.90;;;;;;4904118;29;20213;-93
2021/03/23 04:42:25;;;;;;;7.17;2.47;;;5.10;99.90;;;;;;4904611;29;20261;-91
2021/03/23 04:44:56;;;;;;;9.53;2.97;;;5.20;99.90;;;;;;4911213;29;20225;-91
2021/03/23 04:47:27;;;;;;;8.67;2.80;;;5.20;99.90;;;;;;4922366;29;20208;-91
2021/03/23 04:49:58;;;;;;;7.43;3.37;;;5.20;99.90;;;;;;4921263;29;20197;-91
2021/03/23 04:52:30;;;;;;;6.60;3.23;;;5.30;99.90;;;;;;4916094;29;20209;-89
2021/03/23 04:55:05;;;;;;;10.07;3.17;;;5.30;99.90;;;;;;4912109;29;20622;-90
2021/03/23 04:57:36;;;;;;;6.17;2.40;;;5.40;99.90;;;;;;4910254;29;20202;-90
2021/03/23 05:00:12;;;;;;;6.57;2.07;;;5.40;99.90;;;;;;4902684;29;20238;-92
2021/03/23 05:02:43;;;;;;;6.17;1.80;;;5.50;99.90;;;;;;4921746;29;20220;-91
2021/03/23 05:05:14;;;;;;;4.63;1.60;;;5.60;99.90;;;;;;4923559;29;20277;-91
2021/03/23 05:07:45;;;;;;;4.63;1.33;;;5.60;99.90;;;;;;4923697;29;20252;-91
2021/03/23 05:10:18;;;;;;;5.57;2.17;;;5.70;99.90;;;;;;4908421;29;20589;-91
2021/03/23 05:12:49;;;;;;;5.50;1.43;;;5.80;99.90;;;;;;4906801;29;20246;-92
2021/03/23 05:15:20;;;;;;;7.53;1.67;;;5.90;99.90;;;;;;4909051;29;20278;-92
2021/03/23 05:17:51;;;;;;;6.17;1.70;;;6.00;99.90;;;;;;4909701;29;20245;-93
2021/03/23 05:20:22;;;;;;;5.63;1.63;;;6.00;99.90;;;;;;4906528;29;20670;-92
2021/03/23 05:22:52;;;;;;;10.63;1.97;;;6.00;99.90;;;;;;4914393;29;20205;-91
2021/03/23 05:25:24;;;;;;;2.77;1.33;;;6.00;99.90;;;;;;4931336;29;20256;-92
2021/03/23 05:27:56;;;;;;;6.47;1.53;;;6.10;99.90;;;;;;4932696;29;20261;-90
2021/03/23 05:30:27;;;;;;;5.13;1.43;;;6.10;99.90;;;;;;4934062;29;20574;-89
2021/03/23 05:32:58;;;;;;;5.87;1.83;;;6.10;99.90;;;;;;4930972;29;20265;-89
2021/03/23 05:35:29;;;;;;;6.30;2.10;;;6.00;99.90;;;;;;4929044;29;20233;-90
2021/03/23 05:38:00;;;;;;;5.57;1.70;;;6.00;99.90;;;;;;4929154;29;20305;-92
2021/03/23 05:40:35;;;;;;;11.63;1.90;;;6.00;99.90;;;;;;4927011;29;20224;-92
2021/03/23 05:43:27;;;;;;;4.57;1.67;;;6.00;99.90;;;;;;4930358;29;20212;-92
2021/03/23 05:46:02;;;;;;;6.07;1.40;;;6.00;99.90;;;;;;4931275;29;20209;-91
2021/03/23 05:48:36;;;;;;;10.77;2.00;;;6.00;99.90;;;;;;4936905;29;20219;-90
2021/03/23 05:51:14;;;;;;;5.33;1.57;;;6.10;99.90;;;;;;4937788;29;20206;-91
2021/03/23 05:53:55;;;;;;;10.23;2.27;;;6.10;99.90;;;;;;4939336;29;20189;-91
2021/03/23 05:56:28;;;;;;;7.53;1.87;;;6.10;99.90;;;;;;4933657;29;20244;-91
2021/03/23 05:59:13;;;;;;;4.10;1.80;;;6.10;99.90;;;;;;4934397;29;20214;-91
2021/03/23 06:01:50;;;;;;;4.53;1.63;;;6.00;99.90;;;;;;4935079;29;20315;-91
2021/03/23 06:04:26;;;;;;;5.27;1.77;;;6.00;99.90;;;;;;4924104;29;20209;-91
2021/03/23 06:07:03;;;;;;;5.80;1.80;;;6.00;99.90;;;;;;4920535;29;20729;-92
2021/03/23 06:09:37;;;;;;;4.03;1.90;;;5.90;99.90;;;;;;4922482;29;20222;-90
2021/03/23 06:12:28;;;;;;;7.50;1.80;;;5.90;99.90;;;;;;4922130;29;20651;-91
2021/03/23 06:15:04;;;;;;;7.80;2.20;;;5.80;99.90;;;;;;4923967;29;20209;-94
2021/03/23 06:17:44;;;;;;;5.10;1.57;;;5.80;99.90;;;;;;4924817;29;20288;-90
2021/03/23 06:20:51;;;;;;;7.60;1.80;;;5.70;99.90;;;;;;4926857;29;20205;-93
2021/03/23 06:23:48;;;;;;;6.93;1.67;;;5.70;99.90;;;;;;4912685;29;20212;-91
2021/03/23 06:26:28;;;;;;;7.70;2.00;;;5.60;99.90;;;;;;4920836;29;20626;-92
2021/03/23 06:29:06;;;;;;;6.20;1.60;;;5.50;99.90;;;;;;4919316;29;20220;-92
2021/03/23 06:32:07;;;;;;;9.03;1.87;;;5.50;99.90;;;;;;4922279;29;20276;-93
2021/03/23 06:34:38;;;;;;;6.17;1.60;;;5.40;99.90;;;;;;4921467;29;20566;-92
2021/03/23 06:37:22;;;;;;;7.20;1.60;;;5.30;99.90;;;;;;4923603;29;20605;-92
2021/03/23 06:39:54;;;;;;;11.47;2.30;;;5.30;99.90;;;;;;4920071;29;20229;-92
2021/03/23 06:42:37;;;;;;;9.47;2.13;;;5.20;99.90;;;;;;4920797;29;20277;-91
2021/03/23 06:45:27;;;;;;;8.13;2.30;;;5.10;99.90;;;;;;4920366;29;20717;-92
2021/03/23 06:48:01;;;;;;;5.77;1.90;;;5.00;99.90;;;;;;4920061;29;20213;-92
2021/03/23 06:50:38;;;;;;;5.53;1.70;;;4.90;99.90;;;;;;4919666;29;20268;-91
2021/03/23 06:53:15;;;;;;;8.77;1.80;;;4.80;99.90;;;;;;4917774;29;20210;-91
2021/03/23 06:55:46;;;;;;;7.23;2.43;;;4.80;99.90;;;;;;4901122;29;20316;-92
2021/03/23 06:58:31;;;;;;;8.77;2.17;;;4.60;99.90;;;;;;4903441;29;20209;-91
2021/03/23 07:01:21;;;;;;;8.43;4.30;;;4.50;99.90;;;;;;4901877;29;20281;-91
2021/03/23 07:03:54;;;;;;;10.40;3.63;;;4.40;99.90;;;;;;4906754;29;20216;-91
2021/03/23 07:06:29;;;;;;;8.60;3.97;;;4.30;99.90;;;;;;4928112;29;20217;-92
2021/03/23 07:09:18;;;;;;;10.90;4.40;;;4.30;99.90;;;;;;4935184;29;20208;-91
2021/03/23 07:12:02;;;;;;;8.40;4.60;;;4.20;99.90;;;;;;4928271;29;20275;-91
2021/03/23 07:14:37;;;;;;;7.33;4.60;;;4.20;99.90;;;;;;4928188;29;20209;-93
2021/03/23 07:17:31;;;;;;;8.13;4.20;;;4.10;99.90;;;;;;4924301;29;20236;-92
2021/03/23 07:20:08;;;;;;;8.30;3.90;;;4.10;99.90;;;;;;4925831;29;20213;-92
2021/03/23 07:22:47;;;;;;;10.07;3.13;;;4.00;99.90;;;;;;4928357;29;20283;-93
2021/03/23 07:25:42;;;;;;;6.83;3.37;;;3.90;99.90;;;;;;4926138;29;20208;-91
2021/03/23 07:28:29;;;;;;;7.80;3.10;;;3.90;99.90;;;;;;4927201;29;20221;-91
2021/03/23 07:31:15;;;;;;;6.17;2.67;;;3.80;99.90;;;;;;4929206;29;20212;-91
2021/03/23 07:34:12;;;;;;;7.87;3.07;;;3.80;99.90;;;;;;4933311;29;20244;-90
2021/03/23 07:36:47;;;;;;;6.07;2.60;;;3.70;99.90;;;;;;4932768;29;20269;-91
2021/03/23 07:39:25;;;;;;;5.67;2.70;;;3.70;99.90;;;;;;4932277;29;20228;-91
2021/03/23 07:41:57;;;;;;;8.70;2.50;;;3.70;99.90;;;;;;4926325;29;20582;-92
2021/03/23 07:44:38;;;;;;;5.00;2.53;;;3.60;99.90;;;;;;4923613;29;20587;-92
2021/03/23 07:47:19;;;;;;;6.30;2.30;;;3.60;99.90;;;;;;4923424;29;20216;-92
2021/03/23 07:50:02;;;;;;;5.07;2.13;;;3.60;99.90;;;;;;4922690;29;20216;-92
2021/03/23 07:52:36;;;;;;;6.70;2.07;;;3.60;99.90;;;;;;4923127;29;20691;-93
2021/03/23 07:55:18;;;;;;;6.03;1.83;;;3.60;99.90;;;;;;4922736;29;21070;-92
2021/03/23 07:58:08;;;;;;;6.97;1.90;;;3.60;99.90;;;;;;4921846;29;20242;-92
2021/03/23 08:01:00;;;;;;;7.87;2.20;;;3.60;99.90;;;;;;4923625;29;20213;-92
2021/03/23 08:04:00;;;;;;;3.53;1.67;;;3.50;99.90;;;;;;4920598;29;20209;-91
2021/03/23 08:06:47;;;;;;;6.03;2.07;;;3.50;99.90;;;;;;4922101;29;20217;-91
2021/03/23 08:09:57;;;;;;;8.50;2.07;;;3.40;99.90;;;;;;4923275;29;20636;-92
2021/03/23 08:12:49;;;;;;;3.27;1.77;;;3.40;99.90;;;;;;4925490;29;20215;-91
2021/03/23 08:15:38;;;;;;;6.20;2.17;;;3.40;99.90;;;;;;4928640;29;20237;-92
2021/03/23 08:18:36;;;;;;;2.80;1.37;;;3.40;99.90;;;;;;4929360;29;20209;-93
2021/03/23 08:21:40;;;;;;;6.77;2.10;;;3.40;99.90;;;;;;4927992;29;20297;-90
2021/03/23 08:24:22;;;;;;;4.83;1.57;;;3.30;99.90;;;;;;4926323;29;20232;-90
2021/03/23 08:27:17;;;;;;;4.90;2.00;;;3.30;99.90;;;;;;4924440;29;20242;-89
2021/03/23 08:30:03;;;;;;;4.27;1.80;;;3.20;99.90;;;;;;4909889;29;20209;-90
2021/03/23 08:32:40;;;;;;;4.60;1.93;;;3.20;99.90;;;;;;4924049;29;20269;-91
2021/03/23 08:35:30;;;;;;;6.40;1.60;;;3.20;99.90;;;;;;4923725;29;20212;-92
2021/03/23 08:38:40;;;;;;;4.73;1.90;;;3.20;99.90;;;;;;4923443;29;20253;-92
2021/03/23 08:41:22;;;;;;;4.77;1.87;;;3.30;99.90;;;;;;4909748;29;20213;-92
2021/03/23 08:43:55;;;;;;;5.10;1.87;;;3.30;99.90;;;;;;4930682;29;20264;-92
2021/03/23 08:46:28;;;;;;;5.67;1.60;;;3.40;99.90;;;;;;4927217;29;20213;-92
2021/03/23 08:49:02;;;;;;;3.83;1.53;;;3.50;99.90;;;;;;4924502;29;20205;-92
2021/03/23 08:51:35;;;;;;;6.17;1.90;;;3.60;99.90;;;;;;4922112;29;20268;-92
2021/03/23 08:54:06;;;;;;;6.23;2.20;;;3.60;99.90;;;;;;4921978;29;20581;-92
2021/03/23 08:56:59;;;;;;;4.00;1.87;;;3.70;99.90;;;;;;4922687;29;20237;-91
2021/03/23 08:59:56;;;;;;;5.23;2.10;;;3.80;99.90;;;;;;4922707;29;20216;-93
2021/03/23 09:02:49;;;;;;;4.53;1.83;;;3.90;99.90;;;;;;4920348;29;20667;-91
2021/03/23 09:05:54;;;;;;;5.00;1.83;;;4.00;99.90;;;;;;4920750;29;20662;-91
2021/03/23 09:08:40;;;;;;;4.77;1.70;;;4.10;99.90;;;;;;4921304;29;20736;-92
2021/03/23 09:11:37;;;;;;;2.53;1.47;;;4.20;99.90;;;;;;4924087;29;20228;-92
2021/03/23 09:14:22;;;;;;;7.33;1.80;;;4.20;99.90;;;;;;4883176;29;20218;-91
2021/03/23 09:17:37;;;;;;;4.90;1.90;;;4.20;99.90;;;;;;4917915;29;20244;-91
2021/03/23 09:20:45;;;;;;;3.53;2.10;;;4.30;99.90;;;;;;4921383;29;20205;-91
2021/03/23 09:23:36;;;;;;;8.27;2.23;;;4.30;99.90;;;;;;4923511;29;20749;-91
2021/03/23 09:26:32;;;;;;;4.00;1.90;;;4.40;99.90;;;;;;4923191;29;20229;-92
2021/03/23 09:29:38;;;;;;;7.30;1.73;;;4.40;99.90;;;;;;4938766;29;20265;-92
2021/03/23 09:32:17;;;;;;;3.70;1.70;;;4.40;99.90;;;;;;4937941;29;20209;-92
2021/03/23 09:35:20;;;;;;;4.07;1.60;;;4.40;99.90;;;;;;4932614;29;20217;-91
2021/03/23 09:37:58;;;;;;;2.30;1.27;;;4.40;99.90;;;;;;4934576;29;20237;-90
2021/03/23 09:40:55;;;;;;;5.40;1.97;;;4.40;99.90;;;;;;4928339;29;20272;-90
2021/03/23 09:43:39;;;;;;;4.57;1.63;;;4.30;99.90;;;;;;4930238;29;20216;-91
2021/03/23 09:46:33;;;;;;;5.30;2.10;;;4.20;99.90;;;;;;4930745;29;20288;-91
2021/03/23 09:49:17;;;;;;;6.00;2.17;;;4.20;99.90;;;;;;4922259;29;20216;-90
2021/03/23 09:51:54;;;;;;;5.10;2.00;;;4.10;99.90;;;;;;4923853;29;20216;-92
2021/03/23 09:54:28;;;;;;;4.17;2.37;;;4.00;99.90;;;;;;4921045;29;20213;-90
2021/03/23 09:57:03;;;;;;;6.87;2.30;;;4.00;99.90;;;;;;4920182;29;20244;-91
2021/03/23 09:59:56;;;;;;;8.90;2.90;;;3.90;99.90;;;;;;4920482;29;20337;-92
2021/03/23 10:02:31;;;;;;;4.57;2.70;;;3.90;99.90;;;;;;4921494;29;20276;-92
2021/03/23 10:05:19;;;;;;;8.00;2.90;;;3.90;99.90;;;;;;4920938;29;20204;-92
2021/03/23 10:07:51;;;;;;;6.87;2.40;;;3.90;99.90;;;;;;4912592;29;20237;-92
2021/03/23 10:10:29;;;;;;;6.20;3.20;;;3.90;99.90;;;;;;4904352;29;20257;-91
2021/03/23 10:13:16;;;;;;;7.50;3.10;;;3.90;99.90;;;;;;4904895;29;20210;-91
2021/03/23 10:15:47;;;;;;;6.20;3.30;;;3.80;99.90;;;;;;4905048;29;20277;-92
2021/03/23 10:18:22;;;;;;;5.47;2.77;;;3.80;99.90;;;;;;4905255;29;20205;-92
2021/03/23 10:21:00;;;;;;;7.00;3.03;;;3.70;99.90;;;;;;4905584;29;20220;-90
2021/03/23 10:23:33;;;;;;;4.13;2.63;;;3.70;99.90;;;;;;4905131;29;20265;-92
2021/03/23 10:26:07;;;;;;;6.20;2.80;;;3.70;99.90;;;;;;4902365;29;20273;-92
2021/03/23 10:28:40;;;;;;;7.37;2.80;;;3.60;99.90;;;;;;4901549;29;20214;-93
2021/03/23 10:31:15;;;;;;;5.10;3.00;;;3.60;99.90;;;;;;4902596;29;20332;-93
2021/03/23 10:34:05;;;;;;;4.03;2.50;;;3.50;99.90;;;;;;4902318;29;20311;-90
2021/03/23 10:36:52;;;;;;;7.60;2.80;;;3.50;99.90;;;;;;4901989;29;20278;-91
2021/03/23 10:39:37;;;;;;;4.77;2.43;;;3.40;99.90;;;;;;4901540;29;20214;-90
2021/03/23 10:42:23;;;;;;;7.20;3.03;;;3.40;99.90;;;;;;4901857;29;20221;-92
2021/03/23 10:44:54;;;;;;;7.27;2.70;;;3.30;99.90;;;;;;4902944;29;20258;-92
2021/03/23 10:47:33;;;;;;;6.90;2.47;;;3.30;99.90;;;;;;4902187;29;20286;-93
2021/03/23 10:50:19;;;;;;;4.07;2.30;;;3.20;99.90;;;;;;4901950;29;20213;-92
2021/03/23 10:52:53;;;;;;;3.43;2.50;;;3.20;99.90;;;;;;4904589;29;20261;-91
2021/03/23 10:55:27;;;;;;;8.30;2.97;;;3.10;99.90;;;;;;4927710;29;20216;-91
2021/03/23 10:58:25;;;;;;;5.00;2.13;;;3.10;99.90;;;;;;4927626;29;20606;-92
2021/03/23 11:01:15;;;;;;;6.00;2.20;;;3.00;99.90;;;;;;4928466;29;20561;-90
2021/03/23 11:03:50;;;;;;;5.00;2.00;;;3.00;99.90;;;;;;4927647;29;20639;-90
2021/03/23 11:06:33;;;;;;;4.20;1.80;;;2.90;99.90;;;;;;4928901;29;20216;-91
2021/03/23 11:09:08;;;;;;;4.00;1.63;;;2.90;99.90;;;;;;4924525;29;20307;-91
2021/03/23 11:11:40;;;;;;;8.60;1.80;;;3.00;99.90;;;;;;4920813;29;20627;-92
2021/03/23 11:14:11;;;;;;;4.03;1.70;;;3.00;99.90;;;;;;4930757;29;20241;-89
2021/03/23 11:16:45;;;;;;;5.23;1.77;;;3.10;99.90;;;;;;4932749;29;20270;-89
2021/03/23 11:19:28;;;;;;;5.37;1.90;;;3.20;99.90;;;;;;4931689;29;20209;-90
2021/03/23 11:22:04;;;;;;;8.83;2.40;;;3.20;99.90;;;;;;4938166;29;20216;-90
2021/03/23 11:24:37;;;;;;;5.27;1.60;;;3.30;99.90;;;;;;4935931;29;20209;-89
2021/03/23 11:27:08;;;;;;;7.73;1.90;;;3.40;99.90;;;;;;4940182;29;20209;-92
2021/03/23 11:29:40;;;;;;;5.27;1.80;;;3.50;99.90;;;;;;4940332;28;20208;-90
2021/03/23 11:32:11;;;;;;;5.53;1.97;;;3.60;99.90;;;;;;4942694;28;20201;-90
2021/03/23 11:34:41;;;;;;;4.50;2.00;;;3.70;99.90;;;;;;4942531;28;20193;-90
2021/03/23 11:37:12;;;;;;;5.20;2.00;;;3.80;99.90;;;;;;4942207;28;20239;-89
2021/03/23 11:39:44;;;;;;;5.47;1.60;;;3.80;99.90;;;;;;4941162;29;20193;-90
2021/03/23 11:42:26;;;;;;;5.37;1.77;;;3.80;99.90;;;;;;4941368;28;20212;-89
2021/03/23 11:45:03;;;;;;;5.37;2.17;;;3.90;99.90;;;;;;4942738;28;20185;-91
2021/03/23 11:47:42;;;;;;;7.87;2.67;;;4.00;99.90;;;;;;4942207;28;20197;-91
2021/03/23 11:50:14;;;;;;;8.70;2.40;;;4.00;99.90;;;;;;4938606;29;20224;-91
2021/03/23 11:52:46;;;;;;;9.40;2.10;;;4.10;99.90;;;;;;4935420;29;20216;-91
2021/03/23 11:55:22;;;;;;;8.47;2.70;;;4.10;99.90;;;;;;4930929;29;20231;-91
2021/03/23 11:57:52;;;;;;;7.43;2.33;;;4.10;99.90;;;;;;4928857;29;20288;-90
2021/03/23 12:00:27;;;;;;;7.43;2.53;;;4.20;99.90;;;;;;4925163;29;20213;-90
2021/03/23 12:02:59;;;;;;;5.63;2.33;;;4.10;99.90;;;;;;4931699;29;20768;-92
2021/03/23 12:05:31;;;;;;;5.00;2.47;;;4.20;99.90;;;;;;4929268;29;20213;-93
2021/03/23 12:08:23;;;;;;;8.03;2.50;;;4.20;99.90;;;;;;4930176;28;20280;-93
2021/03/23 12:11:05;;;;;;;7.67;2.30;;;4.20;99.90;;;;;;4928310;29;20213;-92
2021/03/23 12:13:47;;;;;;;6.80;2.63;;;4.30;99.90;;;;;;4930907;29;20243;-92
2021/03/23 12:16:24;;;;;;;5.03;2.20;;;4.10;99.90;;;;;;4922826;29;20279;-92
2021/03/23 12:19:07;;;;;;;8.63;2.53;;;4.20;99.90;;;;;;4922811;29;20303;-93
2021/03/23 12:21:41;;;;;;;4.47;2.17;;;4.20;99.90;;;;;;4923209;29;20299;-92
2021/03/23 12:24:13;;;;;;;4.13;1.87;;;4.30;99.90;;;;;;4922990;29;20272;-92
2021/03/23 12:26:47;;;;;;;8.07;2.33;;;4.40;99.90;;;;;;4922494;29;20212;-92
2021/03/23 12:29:20;;;;;;;5.30;2.10;;;4.40;99.90;;;;;;4922286;29;20220;-92
2021/03/23 12:31:53;;;;;;;6.20;2.50;;;4.30;99.90;;;;;;4922171;29;20708;-91
2021/03/23 12:34:28;;;;;;;5.70;2.00;;;4.30;99.90;;;;;;4921302;29;20307;-92
2021/03/23 12:37:00;;;;;;;3.17;1.80;;;4.30;99.90;;;;;;4922073;29;20323;-90
2021/03/23 12:39:31;;;;;;;7.43;2.70;;;4.40;99.90;;;;;;4921850;29;20265;-91
2021/03/23 12:42:06;;;;;;;7.73;2.37;;;4.40;99.90;;;;;;4920586;29;20269;-92
2021/03/23 12:44:38;;;;;;;6.67;2.17;;;4.40;99.90;;;;;;4922490;29;20212;-91
2021/03/23 12:47:13;;;;;;;7.33;2.10;;;4.50;99.90;;;;;;4924375;29;20654;-92
2021/03/23 12:49:47;;;;;;;6.30;2.57;;;4.50;99.90;;;;;;4920684;29;20272;-91
2021/03/23 12:52:21;;;;;;;3.80;2.07;;;4.40;99.90;;;;;;4925357;29;20288;-90
2021/03/23 12:54:55;;;;;;;6.57;2.17;;;4.40;99.90;;;;;;4903710;29;20213;-91
2021/03/23 12:57:29;;;;;;;6.50;2.30;;;4.40;99.90;;;;;;4905053;29;20258;-90
2021/03/23 13:00:08;;;;;;;5.77;2.17;;;4.50;99.90;;;;;;4902676;29;20210;-92
2021/03/23 13:02:40;;;;;;;5.27;1.73;;;4.50;99.90;;;;;;4906866;29;20244;-93
2021/03/23 13:05:13;;;;;;;11.90;2.60;;;4.60;99.90;;;;;;4903203;29;20237;-92
2021/03/23 13:07:44;;;;;;;3.50;1.80;;;4.60;99.90;;;;;;4919639;29;20276;-92
2021/03/23 13:10:25;;;;;;;8.27;2.07;;;4.60;99.90;;;;;;4924437;29;20237;-92
2021/03/23 13:12:59;;;;;;;3.70;1.90;;;4.60;99.90;;;;;;4930579;29;20213;-91
2021/03/23 13:15:30;;;;;;;4.13;1.70;;;4.70;99.90;;;;;;4929795;29;20213;-92
2021/03/23 13:18:01;;;;;;;5.33;1.90;;;4.60;99.90;;;;;;4924821;29;20380;-92
2021/03/23 13:20:32;;;;;;;5.07;1.87;;;4.70;99.90;;;;;;4921128;29;20212;-92
2021/03/23 13:23:05;;;;;;;8.00;1.97;;;4.60;99.90;;;;;;4921309;29;20684;-92
2021/03/23 13:25:38;;;;;;;5.53;1.80;;;4.70;99.90;;;;;;4921015;29;20217;-91
2021/03/23 13:28:26;;;;;;;7.07;2.20;;;4.70;99.90;;;;;;4919858;29;20256;-91
2021/03/23 13:30:57;;;;;;;5.00;1.90;;;4.70;99.90;;;;;;4920309;29;20729;-89
2021/03/23 13:33:29;;;;;;;6.50;2.07;;;4.80;99.90;;;;;;4920688;29;20609;-91
2021/03/23 13:36:00;;;;;;;3.17;1.90;;;4.70;99.90;;;;;;4920313;29;20232;-91
2021/03/23 13:38:35;;;;;;;3.57;1.97;;;4.70;99.90;;;;;;4920263;29;20232;-91
2021/03/23 13:41:06;;;;;;;8.93;1.83;;;4.60;99.90;;;;;;4921947;29;20235;-91
2021/03/23 13:43:54;;;;;;;5.23;1.93;;;4.60;99.90;;;;;;4924310;29;20231;-91
2021/03/23 13:46:33;;;;;;;5.63;2.10;;;4.60;99.90;;;;;;4924175;29;20224;-92
2021/03/23 13:49:04;;;;;;;5.73;2.37;;;4.60;99.90;;;;;;4924330;29;20280;-92